sensor_id;sensor_type;location;lat;lon;timestamp;P1;durP1;ratioP1;P2;durP2;ratioP2
63599;SDS011;49747;51.334;6.830;2023-02-22T00:01:12;29.20;;;15.75;;
63599;SDS011;49747;51.334;6.830;2023-02-22T00:04:02;28.38;;;14.55;;
63599;SDS011;49747;51.334;6.830;2023-02-22T00:06:30;31.00;;;14.80;;
63599;SDS011;49747;51.334;6.830;2023-02-22T00:08:57;29.08;;;14.27;;
63599;SDS011;49747;51.334;6.830;2023-02-22T00:11:24;26.73;;;13.63;;
63599;SDS011;49747;51.334;6.830;2023-02-22T00:13:52;26.88;;;13.35;;
63599;SDS011;49747;51.334;6.830;2023-02-22T00:16:22;26.73;;;14.23;;
63599;SDS011;49747;51.334;6.830;2023-02-22T00:21:18;26.70;;;13.52;;
63599;SDS011;49747;51.334;6.830;2023-02-22T00:23:45;26.90;;;13.73;;
63599;SDS011;49747;51.334;6.830;2023-02-22T00:26:14;26.02;;;13.90;;
63599;SDS011;49747;51.334;6.830;2023-02-22T00:28:46;33.15;;;15.77;;
63599;SDS011;49747;51.334;6.830;2023-02-22T00:31:14;33.78;;;15.63;;
63599;SDS011;49747;51.334;6.830;2023-02-22T00:33:42;37.22;;;16.52;;
63599;SDS011;49747;51.334;6.830;2023-02-22T00:36:09;36.17;;;16.13;;
63599;SDS011;49747;51.334;6.830;2023-02-22T00:38:37;29.77;;;15.05;;
63599;SDS011;49747;51.334;6.830;2023-02-22T00:41:04;34.45;;;16.50;;
63599;SDS011;49747;51.334;6.830;2023-02-22T00:43:30;31.40;;;15.98;;
63599;SDS011;49747;51.334;6.830;2023-02-22T00:45:57;32.13;;;15.90;;
63599;SDS011;49747;51.334;6.830;2023-02-22T00:48:24;36.45;;;16.55;;
63599;SDS011;49747;51.334;6.830;2023-02-22T00:50:50;30.92;;;14.77;;
63599;SDS011;49747;51.334;6.830;2023-02-22T00:53:21;32.58;;;15.75;;
63599;SDS011;49747;51.334;6.830;2023-02-22T00:55:49;30.13;;;14.27;;
63599;SDS011;49747;51.334;6.830;2023-02-22T00:58:16;27.55;;;14.40;;
63599;SDS011;49747;51.334;6.830;2023-02-22T01:00:44;25.63;;;13.23;;
63599;SDS011;49747;51.334;6.830;2023-02-22T01:03:16;26.42;;;13.55;;
63599;SDS011;49747;51.334;6.830;2023-02-22T01:05:44;25.65;;;13.20;;
63599;SDS011;49747;51.334;6.830;2023-02-22T01:08:11;24.83;;;13.85;;
63599;SDS011;49747;51.334;6.830;2023-02-22T01:10:40;24.88;;;13.13;;
63599;SDS011;49747;51.334;6.830;2023-02-22T01:13:08;21.77;;;12.13;;
63599;SDS011;49747;51.334;6.830;2023-02-22T01:15:38;21.77;;;11.88;;
63599;SDS011;49747;51.334;6.830;2023-02-22T01:18:06;21.38;;;12.70;;
63599;SDS011;49747;51.334;6.830;2023-02-22T01:20:34;22.33;;;11.57;;
63599;SDS011;49747;51.334;6.830;2023-02-22T01:23:01;21.15;;;11.65;;
63599;SDS011;49747;51.334;6.830;2023-02-22T01:25:32;23.88;;;12.40;;
63599;SDS011;49747;51.334;6.830;2023-02-22T01:27:59;24.15;;;12.68;;
63599;SDS011;49747;51.334;6.830;2023-02-22T01:30:28;22.02;;;11.35;;
63599;SDS011;49747;51.334;6.830;2023-02-22T01:32:59;20.92;;;11.18;;
63599;SDS011;49747;51.334;6.830;2023-02-22T01:35:32;19.77;;;11.13;;
63599;SDS011;49747;51.334;6.830;2023-02-22T01:38:00;21.73;;;12.10;;
63599;SDS011;49747;51.334;6.830;2023-02-22T01:40:31;24.48;;;12.95;;
63599;SDS011;49747;51.334;6.830;2023-02-22T01:43:03;22.33;;;11.65;;
63599;SDS011;49747;51.334;6.830;2023-02-22T01:45:41;24.98;;;13.80;;
63599;SDS011;49747;51.334;6.830;2023-02-22T01:48:10;24.23;;;12.85;;
63599;SDS011;49747;51.334;6.830;2023-02-22T01:50:56;22.05;;;12.07;;
63599;SDS011;49747;51.334;6.830;2023-02-22T01:53:28;21.98;;;11.55;;
63599;SDS011;49747;51.334;6.830;2023-02-22T01:56:02;23.52;;;12.45;;
63599;SDS011;49747;51.334;6.830;2023-02-22T01:58:30;21.30;;;12.02;;
63599;SDS011;49747;51.334;6.830;2023-02-22T02:00:59;22.05;;;12.30;;
63599;SDS011;49747;51.334;6.830;2023-02-22T02:03:30;22.80;;;12.27;;
63599;SDS011;49747;51.334;6.830;2023-02-22T02:06:01;23.70;;;12.20;;
63599;SDS011;49747;51.334;6.830;2023-02-22T02:11:08;20.25;;;10.90;;
63599;SDS011;49747;51.334;6.830;2023-02-22T02:13:35;23.70;;;11.75;;
63599;SDS011;49747;51.334;6.830;2023-02-22T02:16:02;20.02;;;10.40;;
63599;SDS011;49747;51.334;6.830;2023-02-22T02:18:29;21.70;;;11.32;;
63599;SDS011;49747;51.334;6.830;2023-02-22T02:32:38;16.83;;;9.40;;
63599;SDS011;49747;51.334;6.830;2023-02-22T02:35:48;16.73;;;9.07;;
63599;SDS011;49747;51.334;6.830;2023-02-22T02:41:09;15.55;;;9.20;;
63599;SDS011;49747;51.334;6.830;2023-02-22T02:46:28;14.88;;;8.60;;
63599;SDS011;49747;51.334;6.830;2023-02-22T02:49:01;14.55;;;8.35;;
63599;SDS011;49747;51.334;6.830;2023-02-22T02:51:31;14.13;;;8.80;;
63599;SDS011;49747;51.334;6.830;2023-02-22T02:54:02;12.50;;;7.78;;
63599;SDS011;49747;51.334;6.830;2023-02-22T02:56:29;14.27;;;8.10;;
63599;SDS011;49747;51.334;6.830;2023-02-22T02:58:56;13.15;;;8.38;;
63599;SDS011;49747;51.334;6.830;2023-02-22T03:04:19;11.70;;;7.13;;
63599;SDS011;49747;51.334;6.830;2023-02-22T03:09:37;10.98;;;6.80;;
63599;SDS011;49747;51.334;6.830;2023-02-22T03:12:16;11.80;;;7.20;;
63599;SDS011;49747;51.334;6.830;2023-02-22T03:14:48;10.40;;;6.28;;
63599;SDS011;49747;51.334;6.830;2023-02-22T03:17:20;11.27;;;6.93;;
63599;SDS011;49747;51.334;6.830;2023-02-22T03:19:59;11.20;;;6.82;;
63599;SDS011;49747;51.334;6.830;2023-02-22T03:22:30;13.13;;;7.38;;
63599;SDS011;49747;51.334;6.830;2023-02-22T03:25:13;11.23;;;7.07;;
63599;SDS011;49747;51.334;6.830;2023-02-22T03:27:47;12.90;;;7.10;;
63599;SDS011;49747;51.334;6.830;2023-02-22T03:30:20;11.52;;;7.05;;
63599;SDS011;49747;51.334;6.830;2023-02-22T03:32:50;11.15;;;7.05;;
63599;SDS011;49747;51.334;6.830;2023-02-22T03:35:21;11.77;;;7.25;;
63599;SDS011;49747;51.334;6.830;2023-02-22T03:37:53;11.57;;;7.00;;
63599;SDS011;49747;51.334;6.830;2023-02-22T03:40:28;13.57;;;7.45;;
63599;SDS011;49747;51.334;6.830;2023-02-22T03:43:04;11.38;;;7.35;;
63599;SDS011;49747;51.334;6.830;2023-02-22T03:45:37;12.60;;;7.18;;
63599;SDS011;49747;51.334;6.830;2023-02-22T03:50:54;11.35;;;7.03;;
63599;SDS011;49747;51.334;6.830;2023-02-22T03:53:24;10.38;;;7.07;;
63599;SDS011;49747;51.334;6.830;2023-02-22T03:55:50;11.88;;;7.00;;
63599;SDS011;49747;51.334;6.830;2023-02-22T03:58:21;11.13;;;6.70;;
63599;SDS011;49747;51.334;6.830;2023-02-22T04:00:50;12.02;;;7.28;;
63599;SDS011;49747;51.334;6.830;2023-02-22T04:03:19;11.32;;;7.20;;
63599;SDS011;49747;51.334;6.830;2023-02-22T04:05:47;12.45;;;7.30;;
63599;SDS011;49747;51.334;6.830;2023-02-22T04:08:13;10.57;;;6.93;;
63599;SDS011;49747;51.334;6.830;2023-02-22T04:10:41;11.13;;;7.22;;
63599;SDS011;49747;51.334;6.830;2023-02-22T04:13:08;11.05;;;7.00;;
63599;SDS011;49747;51.334;6.830;2023-02-22T04:15:38;10.75;;;7.30;;
63599;SDS011;49747;51.334;6.830;2023-02-22T04:18:07;11.35;;;6.90;;
63599;SDS011;49747;51.334;6.830;2023-02-22T04:20:35;12.48;;;7.30;;
63599;SDS011;49747;51.334;6.830;2023-02-22T04:23:07;12.68;;;7.30;;
63599;SDS011;49747;51.334;6.830;2023-02-22T04:25:37;11.23;;;7.07;;
63599;SDS011;49747;51.334;6.830;2023-02-22T04:28:09;12.55;;;7.25;;
63599;SDS011;49747;51.334;6.830;2023-02-22T04:30:51;11.57;;;7.40;;
63599;SDS011;49747;51.334;6.830;2023-02-22T04:33:18;13.70;;;7.63;;
63599;SDS011;49747;51.334;6.830;2023-02-22T04:35:45;12.80;;;7.80;;
63599;SDS011;49747;51.334;6.830;2023-02-22T04:38:12;12.98;;;7.75;;
63599;SDS011;49747;51.334;6.830;2023-02-22T04:40:39;13.68;;;7.75;;
63599;SDS011;49747;51.334;6.830;2023-02-22T04:43:06;14.50;;;8.50;;
63599;SDS011;49747;51.334;6.830;2023-02-22T04:45:33;12.57;;;7.97;;
63599;SDS011;49747;51.334;6.830;2023-02-22T04:48:01;15.93;;;9.00;;
63599;SDS011;49747;51.334;6.830;2023-02-22T04:50:28;13.68;;;8.25;;
63599;SDS011;49747;51.334;6.830;2023-02-22T04:52:55;14.68;;;7.88;;
63599;SDS011;49747;51.334;6.830;2023-02-22T04:55:22;14.60;;;8.63;;
63599;SDS011;49747;51.334;6.830;2023-02-22T04:57:49;17.73;;;8.95;;
63599;SDS011;49747;51.334;6.830;2023-02-22T05:00:16;15.20;;;8.68;;
63599;SDS011;49747;51.334;6.830;2023-02-22T05:02:44;16.90;;;8.55;;
63599;SDS011;49747;51.334;6.830;2023-02-22T05:05:12;14.73;;;8.55;;
63599;SDS011;49747;51.334;6.830;2023-02-22T05:07:40;15.63;;;8.75;;
63599;SDS011;49747;51.334;6.830;2023-02-22T05:10:07;15.02;;;8.60;;
63599;SDS011;49747;51.334;6.830;2023-02-22T05:12:34;16.38;;;9.90;;
63599;SDS011;49747;51.334;6.830;2023-02-22T05:15:03;16.40;;;8.35;;
63599;SDS011;49747;51.334;6.830;2023-02-22T05:17:30;18.17;;;9.45;;
63599;SDS011;49747;51.334;6.830;2023-02-22T05:19:57;15.88;;;9.27;;
63599;SDS011;49747;51.334;6.830;2023-02-22T05:22:23;16.10;;;9.85;;
63599;SDS011;49747;51.334;6.830;2023-02-22T05:24:50;16.13;;;9.15;;
63599;SDS011;49747;51.334;6.830;2023-02-22T05:27:18;16.17;;;8.57;;
63599;SDS011;49747;51.334;6.830;2023-02-22T05:29:44;19.13;;;9.10;;
63599;SDS011;49747;51.334;6.830;2023-02-22T05:32:12;17.60;;;9.43;;
63599;SDS011;49747;51.334;6.830;2023-02-22T05:34:38;16.20;;;8.95;;
63599;SDS011;49747;51.334;6.830;2023-02-22T05:37:05;17.13;;;8.85;;
63599;SDS011;49747;51.334;6.830;2023-02-22T05:39:32;18.15;;;9.48;;
63599;SDS011;49747;51.334;6.830;2023-02-22T05:41:58;16.83;;;8.10;;
63599;SDS011;49747;51.334;6.830;2023-02-22T05:44:25;17.17;;;9.13;;
63599;SDS011;49747;51.334;6.830;2023-02-22T05:46:53;16.42;;;8.30;;
63599;SDS011;49747;51.334;6.830;2023-02-22T05:49:19;15.73;;;8.90;;
63599;SDS011;49747;51.334;6.830;2023-02-22T05:51:46;16.00;;;8.57;;
63599;SDS011;49747;51.334;6.830;2023-02-22T05:54:12;15.60;;;8.32;;
63599;SDS011;49747;51.334;6.830;2023-02-22T05:56:39;16.45;;;8.68;;
63599;SDS011;49747;51.334;6.830;2023-02-22T05:59:05;15.95;;;8.70;;
63599;SDS011;49747;51.334;6.830;2023-02-22T06:01:32;16.30;;;8.40;;
63599;SDS011;49747;51.334;6.830;2023-02-22T06:03:58;16.63;;;9.23;;
63599;SDS011;49747;51.334;6.830;2023-02-22T06:06:25;16.52;;;8.27;;
63599;SDS011;49747;51.334;6.830;2023-02-22T06:08:51;20.48;;;8.75;;
63599;SDS011;49747;51.334;6.830;2023-02-22T06:11:18;15.63;;;8.50;;
63599;SDS011;49747;51.334;6.830;2023-02-22T06:13:51;16.38;;;8.02;;
63599;SDS011;49747;51.334;6.830;2023-02-22T06:16:19;16.50;;;7.95;;
63599;SDS011;49747;51.334;6.830;2023-02-22T06:18:47;16.25;;;9.05;;
63599;SDS011;49747;51.334;6.830;2023-02-22T06:21:14;15.25;;;8.85;;
63599;SDS011;49747;51.334;6.830;2023-02-22T06:23:41;15.50;;;8.05;;
63599;SDS011;49747;51.334;6.830;2023-02-22T06:26:08;15.18;;;8.25;;
63599;SDS011;49747;51.334;6.830;2023-02-22T06:28:34;14.02;;;7.78;;
63599;SDS011;49747;51.334;6.830;2023-02-22T06:31:01;15.05;;;7.75;;
63599;SDS011;49747;51.334;6.830;2023-02-22T06:33:28;14.50;;;8.55;;
63599;SDS011;49747;51.334;6.830;2023-02-22T06:35:54;17.13;;;8.50;;
63599;SDS011;49747;51.334;6.830;2023-02-22T06:38:22;17.75;;;8.38;;
63599;SDS011;49747;51.334;6.830;2023-02-22T06:40:50;16.20;;;9.35;;
63599;SDS011;49747;51.334;6.830;2023-02-22T06:43:17;16.88;;;10.27;;
63599;SDS011;49747;51.334;6.830;2023-02-22T06:45:43;16.58;;;9.70;;
63599;SDS011;49747;51.334;6.830;2023-02-22T06:48:10;15.45;;;8.55;;
63599;SDS011;49747;51.334;6.830;2023-02-22T06:50:37;17.88;;;10.32;;
63599;SDS011;49747;51.334;6.830;2023-02-22T06:53:04;18.95;;;10.50;;
63599;SDS011;49747;51.334;6.830;2023-02-22T06:55:31;19.33;;;9.82;;
63599;SDS011;49747;51.334;6.830;2023-02-22T07:00:29;18.20;;;9.73;;
63599;SDS011;49747;51.334;6.830;2023-02-22T07:02:58;18.63;;;9.88;;
63599;SDS011;49747;51.334;6.830;2023-02-22T07:05:26;21.52;;;10.73;;
63599;SDS011;49747;51.334;6.830;2023-02-22T07:07:53;18.45;;;9.88;;
63599;SDS011;49747;51.334;6.830;2023-02-22T07:10:28;20.58;;;10.68;;
63599;SDS011;49747;51.334;6.830;2023-02-22T07:12:56;18.52;;;9.95;;
63599;SDS011;49747;51.334;6.830;2023-02-22T07:15:23;18.52;;;10.13;;
63599;SDS011;49747;51.334;6.830;2023-02-22T07:17:51;16.95;;;9.75;;
63599;SDS011;49747;51.334;6.830;2023-02-22T07:20:18;18.80;;;9.93;;
63599;SDS011;49747;51.334;6.830;2023-02-22T07:22:46;17.00;;;9.60;;
63599;SDS011;49747;51.334;6.830;2023-02-22T07:25:13;16.42;;;9.55;;
63599;SDS011;49747;51.334;6.830;2023-02-22T07:27:40;17.40;;;9.43;;
63599;SDS011;49747;51.334;6.830;2023-02-22T07:30:14;17.63;;;10.05;;
63599;SDS011;49747;51.334;6.830;2023-02-22T07:32:44;20.35;;;9.77;;
63599;SDS011;49747;51.334;6.830;2023-02-22T07:35:20;19.60;;;10.77;;
63599;SDS011;49747;51.334;6.830;2023-02-22T07:37:52;22.30;;;9.68;;
63599;SDS011;49747;51.334;6.830;2023-02-22T07:40:21;18.50;;;9.85;;
63599;SDS011;49747;51.334;6.830;2023-02-22T07:43:02;18.52;;;10.18;;
63599;SDS011;49747;51.334;6.830;2023-02-22T07:45:33;20.67;;;11.30;;
63599;SDS011;49747;51.334;6.830;2023-02-22T07:48:01;19.30;;;10.82;;
63599;SDS011;49747;51.334;6.830;2023-02-22T07:50:30;18.02;;;10.75;;
63599;SDS011;49747;51.334;6.830;2023-02-22T07:52:59;19.63;;;10.20;;
63599;SDS011;49747;51.334;6.830;2023-02-22T07:55:28;22.67;;;11.13;;
63599;SDS011;49747;51.334;6.830;2023-02-22T07:57:58;17.65;;;10.13;;
63599;SDS011;49747;51.334;6.830;2023-02-22T08:02:53;17.98;;;9.95;;
63599;SDS011;49747;51.334;6.830;2023-02-22T08:05:20;17.45;;;10.77;;
63599;SDS011;49747;51.334;6.830;2023-02-22T08:07:48;19.05;;;10.30;;
63599;SDS011;49747;51.334;6.830;2023-02-22T08:10:16;16.63;;;10.15;;
63599;SDS011;49747;51.334;6.830;2023-02-22T08:12:45;18.73;;;10.48;;
63599;SDS011;49747;51.334;6.830;2023-02-22T08:15:21;20.48;;;10.05;;
63599;SDS011;49747;51.334;6.830;2023-02-22T08:18:00;15.77;;;9.63;;
63599;SDS011;49747;51.334;6.830;2023-02-22T08:20:28;18.83;;;10.15;;
63599;SDS011;49747;51.334;6.830;2023-02-22T08:22:56;17.92;;;10.23;;
63599;SDS011;49747;51.334;6.830;2023-02-22T08:25:25;17.90;;;10.23;;
63599;SDS011;49747;51.334;6.830;2023-02-22T08:28:04;22.38;;;10.07;;
63599;SDS011;49747;51.334;6.830;2023-02-22T08:30:34;16.67;;;9.93;;
63599;SDS011;49747;51.334;6.830;2023-02-22T08:33:05;16.10;;;9.30;;
63599;SDS011;49747;51.334;6.830;2023-02-22T08:35:32;14.68;;;9.18;;
63599;SDS011;49747;51.334;6.830;2023-02-22T08:38:01;18.40;;;9.65;;
63599;SDS011;49747;51.334;6.830;2023-02-22T08:40:31;14.18;;;8.18;;
63599;SDS011;49747;51.334;6.830;2023-02-22T08:43:02;18.70;;;9.57;;
63599;SDS011;49747;51.334;6.830;2023-02-22T08:45:29;16.42;;;8.65;;
63599;SDS011;49747;51.334;6.830;2023-02-22T08:47:57;15.68;;;9.15;;
63599;SDS011;49747;51.334;6.830;2023-02-22T08:50:25;19.13;;;8.90;;
63599;SDS011;49747;51.334;6.830;2023-02-22T08:52:55;15.32;;;9.02;;
63599;SDS011;49747;51.334;6.830;2023-02-22T08:55:25;14.45;;;8.13;;
63599;SDS011;49747;51.334;6.830;2023-02-22T08:57:55;17.60;;;8.68;;
63599;SDS011;49747;51.334;6.830;2023-02-22T09:00:22;12.10;;;4.43;;
63599;SDS011;49747;51.334;6.830;2023-02-22T09:02:51;13.35;;;7.45;;
63599;SDS011;49747;51.334;6.830;2023-02-22T09:05:18;13.85;;;7.93;;
63599;SDS011;49747;51.334;6.830;2023-02-22T09:07:45;14.27;;;8.38;;
63599;SDS011;49747;51.334;6.830;2023-02-22T09:10:12;13.82;;;8.40;;
63599;SDS011;49747;51.334;6.830;2023-02-22T09:12:42;14.90;;;8.70;;
63599;SDS011;49747;51.334;6.830;2023-02-22T09:15:09;15.73;;;8.52;;
63599;SDS011;49747;51.334;6.830;2023-02-22T09:17:37;14.32;;;7.90;;
63599;SDS011;49747;51.334;6.830;2023-02-22T09:20:04;15.23;;;8.25;;
63599;SDS011;49747;51.334;6.830;2023-02-22T09:22:32;15.68;;;8.68;;
63599;SDS011;49747;51.334;6.830;2023-02-22T09:24:59;15.65;;;8.35;;
63599;SDS011;49747;51.334;6.830;2023-02-22T09:27:40;16.30;;;9.38;;
63599;SDS011;49747;51.334;6.830;2023-02-22T09:30:14;15.23;;;8.50;;
63599;SDS011;49747;51.334;6.830;2023-02-22T09:32:53;16.90;;;8.10;;
63599;SDS011;49747;51.334;6.830;2023-02-22T09:35:23;14.65;;;8.50;;
63599;SDS011;49747;51.334;6.830;2023-02-22T09:37:56;15.13;;;8.52;;
63599;SDS011;49747;51.334;6.830;2023-02-22T09:40:34;15.02;;;7.70;;
63599;SDS011;49747;51.334;6.830;2023-02-22T09:43:20;14.82;;;7.72;;
63599;SDS011;49747;51.334;6.830;2023-02-22T09:48:31;14.88;;;8.70;;
63599;SDS011;49747;51.334;6.830;2023-02-22T09:51:01;13.68;;;8.88;;
63599;SDS011;49747;51.334;6.830;2023-02-22T09:53:37;16.35;;;8.85;;
63599;SDS011;49747;51.334;6.830;2023-02-22T09:56:13;15.13;;;8.02;;
63599;SDS011;49747;51.334;6.830;2023-02-22T09:58:44;12.57;;;8.05;;
63599;SDS011;49747;51.334;6.830;2023-02-22T10:06:38;13.82;;;8.48;;
63599;SDS011;49747;51.334;6.830;2023-02-22T10:09:10;14.45;;;8.27;;
63599;SDS011;49747;51.334;6.830;2023-02-22T10:16:47;13.23;;;7.75;;
63599;SDS011;49747;51.334;6.830;2023-02-22T10:22:24;11.43;;;7.03;;
63599;SDS011;49747;51.334;6.830;2023-02-22T10:25:17;15.02;;;8.10;;
63599;SDS011;49747;51.334;6.830;2023-02-22T10:27:57;14.57;;;7.82;;
63599;SDS011;49747;51.334;6.830;2023-02-22T10:30:32;12.48;;;7.28;;
63599;SDS011;49747;51.334;6.830;2023-02-22T10:33:23;14.43;;;7.90;;
63599;SDS011;49747;51.334;6.830;2023-02-22T10:35:56;13.10;;;7.30;;
63599;SDS011;49747;51.334;6.830;2023-02-22T10:38:31;12.95;;;7.85;;
63599;SDS011;49747;51.334;6.830;2023-02-22T10:41:03;15.50;;;7.72;;
63599;SDS011;49747;51.334;6.830;2023-02-22T10:43:46;14.88;;;7.90;;
63599;SDS011;49747;51.334;6.830;2023-02-22T10:46:14;12.50;;;7.43;;
63599;SDS011;49747;51.334;6.830;2023-02-22T10:48:47;12.25;;;7.07;;
63599;SDS011;49747;51.334;6.830;2023-02-22T10:51:18;12.95;;;7.57;;
63599;SDS011;49747;51.334;6.830;2023-02-22T10:53:44;12.75;;;6.97;;
63599;SDS011;49747;51.334;6.830;2023-02-22T10:56:23;13.52;;;7.47;;
63599;SDS011;49747;51.334;6.830;2023-02-22T11:04:16;12.88;;;6.75;;
63599;SDS011;49747;51.334;6.830;2023-02-22T11:06:48;14.10;;;6.93;;
63599;SDS011;49747;51.334;6.830;2023-02-22T11:09:45;12.45;;;6.25;;
63599;SDS011;49747;51.334;6.830;2023-02-22T11:12:17;13.38;;;7.45;;
63599;SDS011;49747;51.334;6.830;2023-02-22T11:14:51;13.10;;;6.65;;
63599;SDS011;49747;51.334;6.830;2023-02-22T11:17:23;14.13;;;6.50;;
63599;SDS011;49747;51.334;6.830;2023-02-22T11:19:56;18.10;;;7.88;;
63599;SDS011;49747;51.334;6.830;2023-02-22T11:22:38;9.88;;;6.03;;
63599;SDS011;49747;51.334;6.830;2023-02-22T11:25:07;11.48;;;6.15;;
63599;SDS011;49747;51.334;6.830;2023-02-22T11:32:52;9.95;;;6.03;;
63599;SDS011;49747;51.334;6.830;2023-02-22T11:40:42;13.40;;;6.82;;
63599;SDS011;49747;51.334;6.830;2023-02-22T11:43:16;11.43;;;6.53;;
63599;SDS011;49747;51.334;6.830;2023-02-22T11:45:54;10.15;;;5.97;;
63599;SDS011;49747;51.334;6.830;2023-02-22T11:48:28;13.30;;;6.85;;
63599;SDS011;49747;51.334;6.830;2023-02-22T11:51:16;11.70;;;6.28;;
63599;SDS011;49747;51.334;6.830;2023-02-22T11:56:21;11.15;;;6.07;;
63599;SDS011;49747;51.334;6.830;2023-02-22T12:13:29;9.57;;;5.45;;
63599;SDS011;49747;51.334;6.830;2023-02-22T12:16:14;10.05;;;5.60;;
63599;SDS011;49747;51.334;6.830;2023-02-22T12:21:30;10.70;;;6.20;;
63599;SDS011;49747;51.334;6.830;2023-02-22T12:24:07;11.60;;;5.90;;
63599;SDS011;49747;51.334;6.830;2023-02-22T12:30:00;12.38;;;5.55;;
63599;SDS011;49747;51.334;6.830;2023-02-22T12:35:20;9.88;;;5.63;;
63599;SDS011;49747;51.334;6.830;2023-02-22T12:37:55;10.88;;;5.43;;
63599;SDS011;49747;51.334;6.830;2023-02-22T12:40:40;11.98;;;5.72;;
63599;SDS011;49747;51.334;6.830;2023-02-22T12:43:16;10.50;;;5.88;;
63599;SDS011;49747;51.334;6.830;2023-02-22T12:48:29;13.52;;;6.43;;
63599;SDS011;49747;51.334;6.830;2023-02-22T12:51:10;10.15;;;5.43;;
63599;SDS011;49747;51.334;6.830;2023-02-22T12:53:41;9.60;;;5.85;;
63599;SDS011;49747;51.334;6.830;2023-02-22T12:56:18;13.13;;;6.10;;
63599;SDS011;49747;51.334;6.830;2023-02-22T12:58:58;12.90;;;5.97;;
63599;SDS011;49747;51.334;6.830;2023-02-22T13:01:36;13.55;;;7.35;;
63599;SDS011;49747;51.334;6.830;2023-02-22T13:04:08;12.73;;;6.20;;
63599;SDS011;49747;51.334;6.830;2023-02-22T13:10:11;15.10;;;7.20;;
63599;SDS011;49747;51.334;6.830;2023-02-22T13:12:58;12.55;;;7.25;;
63599;SDS011;49747;51.334;6.830;2023-02-22T13:18:11;11.82;;;6.80;;
63599;SDS011;49747;51.334;6.830;2023-02-22T13:24:07;12.23;;;7.10;;
63599;SDS011;49747;51.334;6.830;2023-02-22T13:27:03;12.95;;;7.20;;
63599;SDS011;49747;51.334;6.830;2023-02-22T13:29:39;12.52;;;6.95;;
63599;SDS011;49747;51.334;6.830;2023-02-22T13:41:27;11.73;;;7.28;;
63599;SDS011;49747;51.334;6.830;2023-02-22T13:52:01;16.60;;;7.85;;
63599;SDS011;49747;51.334;6.830;2023-02-22T13:54:37;11.52;;;7.20;;
63599;SDS011;49747;51.334;6.830;2023-02-22T13:57:24;14.85;;;7.55;;
63599;SDS011;49747;51.334;6.830;2023-02-22T14:05:35;14.95;;;7.32;;
63599;SDS011;49747;51.334;6.830;2023-02-22T14:10:51;13.32;;;7.43;;
63599;SDS011;49747;51.334;6.830;2023-02-22T14:13:22;14.60;;;6.78;;
63599;SDS011;49747;51.334;6.830;2023-02-22T14:18:26;14.52;;;8.02;;
63599;SDS011;49747;51.334;6.830;2023-02-22T14:21:03;14.27;;;7.72;;
63599;SDS011;49747;51.334;6.830;2023-02-22T14:23:39;14.77;;;7.88;;
63599;SDS011;49747;51.334;6.830;2023-02-22T14:29:15;13.77;;;7.82;;
63599;SDS011;49747;51.334;6.830;2023-02-22T14:37:40;11.30;;;7.75;;
63599;SDS011;49747;51.334;6.830;2023-02-22T14:40:19;15.93;;;7.65;;
63599;SDS011;49747;51.334;6.830;2023-02-22T14:45:49;14.68;;;8.00;;
63599;SDS011;49747;51.334;6.830;2023-02-22T14:48:32;11.27;;;7.95;;
63599;SDS011;49747;51.334;6.830;2023-02-22T14:51:26;14.18;;;8.10;;
63599;SDS011;49747;51.334;6.830;2023-02-22T14:56:25;11.55;;;7.43;;
63599;SDS011;49747;51.334;6.830;2023-02-22T15:01:34;12.70;;;8.20;;
63599;SDS011;49747;51.334;6.830;2023-02-22T15:04:28;13.95;;;7.85;;
63599;SDS011;49747;51.334;6.830;2023-02-22T15:06:59;13.88;;;7.90;;
63599;SDS011;49747;51.334;6.830;2023-02-22T15:09:33;14.50;;;8.25;;
63599;SDS011;49747;51.334;6.830;2023-02-22T15:14:33;13.93;;;8.10;;
63599;SDS011;49747;51.334;6.830;2023-02-22T15:17:06;15.18;;;8.05;;
63599;SDS011;49747;51.334;6.830;2023-02-22T15:19:37;16.35;;;8.52;;
63599;SDS011;49747;51.334;6.830;2023-02-22T15:22:13;14.85;;;8.55;;
63599;SDS011;49747;51.334;6.830;2023-02-22T15:24:46;13.45;;;9.02;;
63599;SDS011;49747;51.334;6.830;2023-02-22T15:27:24;13.32;;;9.35;;
63599;SDS011;49747;51.334;6.830;2023-02-22T15:29:55;14.27;;;9.50;;
63599;SDS011;49747;51.334;6.830;2023-02-22T15:32:34;11.75;;;7.95;;
63599;SDS011;49747;51.334;6.830;2023-02-22T15:37:59;14.60;;;8.57;;
63599;SDS011;49747;51.334;6.830;2023-02-22T15:40:54;13.90;;;8.50;;
63599;SDS011;49747;51.334;6.830;2023-02-22T15:43:25;13.02;;;8.68;;
63599;SDS011;49747;51.334;6.830;2023-02-22T15:45:55;12.57;;;8.93;;
63599;SDS011;49747;51.334;6.830;2023-02-22T15:48:22;13.93;;;8.73;;
63599;SDS011;49747;51.334;6.830;2023-02-22T15:53:36;15.40;;;8.70;;
63599;SDS011;49747;51.334;6.830;2023-02-22T15:56:08;13.23;;;8.63;;
63599;SDS011;49747;51.334;6.830;2023-02-22T15:58:49;13.00;;;8.88;;
63599;SDS011;49747;51.334;6.830;2023-02-22T16:01:23;14.30;;;8.30;;
63599;SDS011;49747;51.334;6.830;2023-02-22T16:03:55;15.68;;;8.63;;
63599;SDS011;49747;51.334;6.830;2023-02-22T16:08:56;13.93;;;8.50;;
63599;SDS011;49747;51.334;6.830;2023-02-22T16:11:25;14.63;;;8.73;;
63599;SDS011;49747;51.334;6.830;2023-02-22T16:14:21;15.90;;;9.15;;
63599;SDS011;49747;51.334;6.830;2023-02-22T16:17:08;13.73;;;8.70;;
63599;SDS011;49747;51.334;6.830;2023-02-22T16:19:39;18.98;;;8.52;;
63599;SDS011;49747;51.334;6.830;2023-02-22T16:22:22;15.73;;;8.75;;
63599;SDS011;49747;51.334;6.830;2023-02-22T16:24:52;14.10;;;8.93;;
63599;SDS011;49747;51.334;6.830;2023-02-22T16:27:21;18.40;;;10.00;;
63599;SDS011;49747;51.334;6.830;2023-02-22T16:32:54;16.13;;;9.88;;
63599;SDS011;49747;51.334;6.830;2023-02-22T16:35:26;19.58;;;10.63;;
63599;SDS011;49747;51.334;6.830;2023-02-22T16:38:04;16.23;;;10.25;;
63599;SDS011;49747;51.334;6.830;2023-02-22T16:40:34;16.52;;;9.85;;
63599;SDS011;49747;51.334;6.830;2023-02-22T16:43:07;18.73;;;10.45;;
63599;SDS011;49747;51.334;6.830;2023-02-22T16:45:37;16.13;;;10.50;;
63599;SDS011;49747;51.334;6.830;2023-02-22T16:48:13;15.35;;;10.45;;
63599;SDS011;49747;51.334;6.830;2023-02-22T16:50:43;14.88;;;10.32;;
63599;SDS011;49747;51.334;6.830;2023-02-22T16:53:10;17.42;;;10.60;;
63599;SDS011;49747;51.334;6.830;2023-02-22T16:55:37;15.65;;;10.40;;
63599;SDS011;49747;51.334;6.830;2023-02-22T16:58:04;15.48;;;11.18;;
63599;SDS011;49747;51.334;6.830;2023-02-22T17:00:31;15.55;;;11.05;;
63599;SDS011;49747;51.334;6.830;2023-02-22T17:03:00;15.48;;;10.07;;
63599;SDS011;49747;51.334;6.830;2023-02-22T17:05:31;16.45;;;10.82;;
63599;SDS011;49747;51.334;6.830;2023-02-22T17:08:02;19.15;;;11.10;;
63599;SDS011;49747;51.334;6.830;2023-02-22T17:10:31;14.75;;;10.30;;
63599;SDS011;49747;51.334;6.830;2023-02-22T17:12:58;15.50;;;10.18;;
63599;SDS011;49747;51.334;6.830;2023-02-22T17:15:38;16.50;;;10.60;;
63599;SDS011;49747;51.334;6.830;2023-02-22T17:18:11;17.23;;;10.18;;
63599;SDS011;49747;51.334;6.830;2023-02-22T17:20:39;17.23;;;10.38;;
63599;SDS011;49747;51.334;6.830;2023-02-22T17:23:07;15.93;;;10.57;;
63599;SDS011;49747;51.334;6.830;2023-02-22T17:28:04;19.35;;;10.60;;
63599;SDS011;49747;51.334;6.830;2023-02-22T17:33:02;15.57;;;10.75;;
63599;SDS011;49747;51.334;6.830;2023-02-22T17:35:32;20.88;;;11.63;;
63599;SDS011;49747;51.334;6.830;2023-02-22T17:38:03;17.70;;;11.48;;
63599;SDS011;49747;51.334;6.830;2023-02-22T17:40:32;18.13;;;11.95;;
63599;SDS011;49747;51.334;6.830;2023-02-22T17:42:59;20.92;;;11.98;;
63599;SDS011;49747;51.334;6.830;2023-02-22T17:45:27;17.42;;;12.43;;